createdAt,value
2018-07-27T10:16:24.940Z,23.70
2018-07-27T10:18:53.974Z,23.90
2018-07-27T10:21:22.973Z,24.20
2018-07-27T10:23:52.077Z,24.60
2018-07-27T10:26:21.443Z,25.10
2018-07-27T10:28:50.368Z,25.60
2018-07-27T10:31:19.610Z,26.00
2018-07-27T10:33:50.115Z,26.40
2018-07-27T10:36:19.463Z,26.70
2018-07-27T10:38:48.670Z,27.00
2018-07-27T10:41:17.780Z,27.30
2018-07-27T10:43:46.968Z,27.60
2018-07-27T10:46:16.228Z,27.80
2018-07-27T10:48:45.123Z,28.00
2018-07-27T10:51:14.332Z,28.10
2018-07-27T10:53:43.312Z,28.30
2018-07-27T10:56:12.603Z,28.40
2018-07-27T10:58:41.617Z,28.50
2018-07-27T11:01:10.927Z,28.60
2018-07-27T11:06:08.835Z,28.70
2018-07-27T11:08:37.914Z,28.80
2018-07-27T11:11:06.879Z,28.80
2018-07-27T11:13:36.020Z,28.90
2018-07-27T11:16:04.991Z,28.90
2018-07-27T11:18:34.219Z,29.00
2018-07-27T11:21:03.170Z,29.00
2018-07-27T11:23:32.130Z,29.00
2018-07-27T11:26:01.271Z,29.00
2018-07-27T11:28:30.343Z,29.10
2018-07-27T11:30:59.515Z,29.10
2018-07-27T11:33:29.111Z,29.10
2018-07-27T11:35:58.323Z,29.10
2018-07-27T11:38:27.569Z,29.10
2018-07-27T11:40:56.934Z,29.10
2018-07-27T11:43:26.098Z,29.10
2018-07-27T11:45:55.537Z,29.10
2018-07-27T11:48:25.726Z,29.10
2018-07-27T11:50:54.746Z,29.10
2018-07-27T11:53:23.971Z,29.10
2018-07-27T11:55:52.936Z,29.10
2018-07-27T11:58:22.467Z,29.10
2018-07-27T12:00:51.360Z,29.10
2018-07-27T12:03:20.895Z,29.10
2018-07-27T12:05:49.832Z,29.10
2018-07-27T12:08:25.231Z,29.20
2018-07-27T12:10:54.534Z,29.20
2018-07-27T12:13:24.176Z,29.20
2018-07-27T12:15:53.076Z,29.20
2018-07-27T12:18:22.106Z,29.30
2018-07-27T12:20:51.180Z,29.30
2018-07-27T12:23:20.088Z,29.30
2018-07-27T12:25:49.015Z,29.40
2018-07-27T12:28:17.977Z,29.50
2018-07-27T12:30:47.415Z,29.60
2018-07-27T12:33:16.768Z,29.60
2018-07-27T12:35:45.991Z,29.70
2018-07-27T12:38:14.956Z,29.80
2018-07-27T12:40:44.025Z,29.90
2018-07-27T12:43:12.988Z,30.00
2018-07-27T12:45:41.915Z,30.10
2018-07-27T12:48:10.950Z,30.10
2018-07-27T12:50:39.963Z,30.20
2018-07-27T12:53:19.257Z,30.20
2018-07-27T12:55:48.560Z,30.30
2018-07-27T12:58:24.075Z,30.30
2018-07-27T13:00:52.975Z,30.30
2018-07-27T13:03:22.719Z,30.30
2018-07-27T13:05:51.771Z,30.30
2018-07-27T13:08:20.727Z,30.30
2018-07-27T13:10:49.667Z,30.30
2018-07-27T13:13:18.854Z,30.20
2018-07-27T13:15:47.743Z,30.20
2018-07-27T13:18:16.809Z,30.20
2018-07-27T13:20:50.071Z,30.20
2018-07-27T13:23:20.942Z,30.20
2018-07-27T13:28:38.911Z,30.10
2018-07-27T13:31:09.227Z,30.10
2018-07-27T13:33:38.414Z,30.10
2018-07-27T13:36:08.373Z,30.10
2018-07-27T13:38:37.459Z,30.10
2018-07-27T13:41:06.380Z,30.10
2018-07-27T13:43:35.428Z,30.10
2018-07-27T13:46:04.418Z,30.10
2018-07-27T13:48:33.490Z,30.10
2018-07-27T13:51:02.412Z,30.10
2018-07-27T13:53:31.744Z,30.10
2018-07-27T13:56:00.807Z,30.20
2018-07-27T13:58:29.737Z,30.20
2018-07-27T14:00:59.143Z,30.30
2018-07-27T14:03:28.104Z,30.40
2018-07-27T14:05:56.992Z,30.40
2018-07-27T14:08:26.104Z,30.50
2018-07-27T14:10:55.278Z,30.50
2018-07-27T14:13:24.213Z,30.60
2018-07-27T14:15:53.129Z,30.60
2018-07-27T14:18:22.159Z,30.60
2018-07-27T14:20:51.334Z,30.60
2018-07-27T14:23:20.824Z,30.60
2018-07-27T14:25:49.769Z,30.60
2018-07-27T14:28:19.939Z,30.70
2018-07-27T14:30:48.858Z,30.80
2018-07-27T14:33:17.814Z,30.90
2018-07-27T14:35:47.494Z,31.10
2018-07-27T14:38:16.653Z,31.20
2018-07-27T14:40:45.679Z,31.40
2018-07-27T14:43:14.727Z,31.60
2018-07-27T14:45:43.990Z,31.80
2018-07-27T14:48:13.627Z,32.00
2018-07-27T14:50:43.175Z,32.10
2018-07-27T14:53:18.381Z,32.30
2018-07-27T14:55:48.346Z,32.50
2018-07-27T14:58:17.536Z,32.70
2018-07-27T15:00:46.412Z,32.80
2018-07-27T15:03:15.369Z,33.00
2018-07-27T15:05:44.266Z,33.10
2018-07-27T15:08:13.198Z,33.20
2018-07-27T15:10:42.082Z,33.30
2018-07-27T15:13:10.959Z,33.20
2018-07-27T15:15:39.839Z,33.20
2018-07-27T15:18:08.707Z,33.20
2018-07-27T15:20:37.580Z,33.20
2018-07-27T15:23:06.527Z,33.10
2018-07-27T15:25:35.415Z,33.10
2018-07-27T15:28:04.288Z,33.20
2018-07-27T15:30:33.194Z,33.30
2018-07-27T15:33:02.043Z,33.40
2018-07-27T15:35:30.923Z,33.50
2018-07-27T15:40:28.430Z,33.70
2018-07-27T15:42:57.285Z,33.90
2018-07-27T15:45:26.194Z,34.10
2018-07-27T15:47:55.016Z,34.20
2018-07-27T15:50:23.999Z,34.30
2018-07-27T15:52:52.842Z,34.40
2018-07-27T15:55:21.750Z,34.50
2018-07-27T15:57:50.635Z,34.60
2018-07-27T16:00:19.524Z,34.70
2018-07-27T16:02:48.432Z,34.80
2018-07-27T16:05:17.327Z,34.90
2018-07-27T16:07:46.206Z,35.00
2018-07-27T16:10:15.068Z,35.10
2018-07-27T16:12:43.909Z,35.20
2018-07-27T16:15:12.878Z,35.30
2018-07-27T16:17:41.711Z,35.30
2018-07-27T16:20:10.604Z,35.40
2018-07-27T16:22:39.434Z,35.50
2018-07-27T16:25:08.989Z,35.50
2018-07-27T16:27:37.885Z,35.60
2018-07-27T16:30:06.842Z,35.70
2018-07-27T16:32:35.674Z,35.80
2018-07-27T16:35:05.872Z,35.80
2018-07-27T16:37:34.736Z,35.90
2018-07-27T16:40:03.833Z,36.00
2018-07-27T16:42:32.696Z,36.00
2018-07-27T16:45:01.855Z,36.00
2018-07-27T16:47:30.719Z,36.10
2018-07-27T16:49:59.586Z,36.10
2018-07-27T16:52:28.555Z,36.10
2018-07-27T16:54:57.421Z,36.20
2018-07-27T16:57:26.407Z,36.20
2018-07-27T16:59:55.334Z,36.20
2018-07-27T17:02:24.186Z,36.20
2018-07-27T17:04:53.078Z,36.30
2018-07-27T17:07:21.931Z,36.20
2018-07-27T17:09:50.807Z,36.20
2018-07-27T17:12:19.662Z,36.20
2018-07-27T17:14:48.565Z,36.20
2018-07-27T17:17:17.408Z,36.20
2018-07-27T17:19:46.270Z,36.10
2018-07-27T17:22:15.107Z,36.00
2018-07-27T17:24:43.998Z,35.90
2018-07-27T17:27:13.424Z,35.80
2018-07-27T17:29:42.307Z,35.70
2018-07-27T17:32:11.151Z,35.50
2018-07-27T17:34:40.047Z,35.40
2018-07-27T17:37:08.904Z,35.30
2018-07-27T17:39:37.746Z,35.10
2018-07-27T17:42:06.769Z,35.00
2018-07-27T17:44:35.644Z,34.90
2018-07-27T17:47:05.458Z,34.70
2018-07-27T17:49:34.306Z,34.50
2018-07-27T17:52:03.182Z,34.40
2018-07-27T17:54:32.028Z,34.20
2018-07-27T17:57:00.956Z,34.10
2018-07-27T17:59:29.824Z,34.00
2018-07-27T18:01:58.714Z,33.90
2018-07-27T18:04:27.566Z,33.80
2018-07-27T18:06:56.507Z,33.60
2018-07-27T18:09:25.366Z,33.50
2018-07-27T18:11:54.243Z,33.40
2018-07-27T18:14:23.155Z,33.30
2018-07-27T18:16:52.048Z,33.20
2018-07-27T18:19:20.898Z,33.10
2018-07-27T18:21:49.823Z,33.10
2018-07-27T18:24:18.674Z,32.90
2018-07-27T18:26:47.583Z,32.90
2018-07-27T18:29:16.455Z,32.80
2018-07-27T18:31:45.326Z,32.70
2018-07-27T18:34:14.244Z,32.70
2018-07-27T18:36:43.115Z,32.60
2018-07-27T18:39:13.171Z,32.50
2018-07-27T18:41:42.075Z,32.40
2018-07-27T18:44:10.936Z,32.40
2018-07-27T18:46:40.323Z,32.30
2018-07-27T18:49:09.651Z,32.20
2018-07-27T18:51:39.417Z,32.10
2018-07-27T18:54:08.271Z,32.00
2018-07-27T18:56:37.230Z,32.00
2018-07-27T18:59:06.067Z,31.90
2018-07-27T19:01:35.019Z,31.80
2018-07-27T19:04:03.860Z,31.80
2018-07-27T19:06:32.762Z,31.70
2018-07-27T19:09:01.623Z,31.60
2018-07-27T19:11:30.515Z,31.60
2018-07-27T19:13:59.373Z,31.50
2018-07-27T19:16:28.303Z,31.50
2018-07-27T19:18:57.163Z,31.40
2018-07-27T19:21:26.232Z,31.40
2018-07-27T19:23:55.091Z,31.30
2018-07-27T19:26:23.975Z,31.30
2018-07-27T19:28:52.834Z,31.20
2018-07-27T19:31:21.720Z,31.20
2018-07-27T19:33:50.587Z,31.10
2018-07-27T19:36:19.516Z,31.10
2018-07-27T19:38:48.376Z,31.00
2018-07-27T19:41:17.279Z,31.00
2018-07-27T19:43:46.285Z,31.00
2018-07-27T19:46:15.172Z,30.90
2018-07-27T19:48:44.015Z,30.90
2018-07-27T19:51:12.918Z,30.90
2018-07-27T19:53:41.768Z,30.80
2018-07-27T19:58:39.123Z,30.70
2018-07-27T20:01:08.028Z,30.60
2018-07-27T20:03:36.911Z,30.60
2018-07-27T20:06:05.861Z,30.50
2018-07-27T20:08:34.749Z,30.50
2018-07-27T20:11:03.607Z,30.40
2018-07-27T20:14:04.866Z,30.30
2018-07-27T20:16:33.759Z,30.30
2018-07-27T20:19:02.616Z,30.30
2018-07-27T20:21:31.522Z,30.20
2018-07-27T20:24:00.351Z,30.10
2018-07-27T20:28:57.887Z,30.10
2018-07-27T20:31:26.730Z,30.00
2018-07-27T20:33:55.549Z,29.90
2018-07-27T20:36:24.711Z,29.90
2018-07-27T20:38:53.823Z,29.80
2018-07-27T20:41:22.666Z,29.80
2018-07-27T20:43:51.721Z,29.70
2018-07-27T20:46:20.565Z,29.60
2018-07-27T20:48:49.432Z,29.60
2018-07-27T20:51:18.269Z,29.60
2018-07-27T20:53:47.118Z,29.50
2018-07-27T20:56:15.996Z,29.50
2018-07-27T20:58:44.895Z,29.50
2018-07-27T21:01:13.725Z,29.40
2018-07-27T21:03:42.614Z,29.40
2018-07-27T21:06:11.470Z,29.40
2018-07-27T21:08:40.342Z,29.30
2018-07-27T21:13:38.397Z,29.30
2018-07-27T21:16:07.236Z,29.20
2018-07-27T21:18:36.103Z,29.20
2018-07-27T21:21:04.952Z,29.10
2018-07-27T21:23:33.814Z,29.10
2018-07-27T21:26:02.658Z,29.00
2018-07-27T21:28:31.522Z,28.90
2018-07-27T21:31:00.395Z,28.90
2018-07-27T21:33:29.234Z,28.90
2018-07-27T21:35:58.055Z,28.80
2018-07-27T21:38:26.919Z,28.80
2018-07-27T21:40:55.912Z,28.70
2018-07-27T21:43:24.771Z,28.70
2018-07-27T21:45:53.605Z,28.60
2018-07-27T21:48:22.485Z,28.60
2018-07-27T21:50:51.312Z,28.50
2018-07-27T21:53:20.201Z,28.50
2018-07-27T21:55:49.059Z,28.40
2018-07-27T21:58:17.973Z,28.40
2018-07-27T22:00:46.830Z,28.40
2018-07-27T22:03:15.710Z,28.30
2018-07-27T22:05:44.552Z,28.30
2018-07-27T22:08:13.430Z,28.20
2018-07-27T22:13:10.771Z,28.10
2018-07-27T22:15:39.623Z,28.10
2018-07-27T22:18:08.515Z,28.10
2018-07-27T22:20:37.378Z,28.00
2018-07-27T22:23:06.310Z,28.00
2018-07-27T22:25:35.134Z,28.00
2018-07-27T22:28:04.030Z,28.00
2018-07-27T22:30:32.871Z,27.90
2018-07-27T22:33:01.734Z,27.90
2018-07-27T22:35:30.576Z,27.80
2018-07-27T22:37:59.447Z,27.80
2018-07-27T22:40:28.343Z,27.80
2018-07-27T22:42:57.224Z,27.80
2018-07-27T22:45:26.054Z,27.70
2018-07-27T22:47:54.934Z,27.70
2018-07-27T22:50:23.758Z,27.70
2018-07-27T22:52:52.614Z,27.60
2018-07-27T22:55:21.442Z,27.60
2018-07-27T22:57:50.333Z,27.60
2018-07-27T23:00:19.198Z,27.60
2018-07-27T23:02:48.082Z,27.50
2018-07-27T23:05:16.889Z,27.50
2018-07-27T23:07:45.755Z,27.60
2018-07-27T23:10:14.605Z,27.60
2018-07-27T23:12:43.711Z,27.60
2018-07-27T23:15:13.126Z,27.60
2018-07-27T23:17:41.986Z,27.60
2018-07-27T23:20:13.111Z,27.60
2018-07-27T23:22:42.568Z,27.50
2018-07-27T23:25:11.405Z,27.40
2018-07-27T23:27:40.291Z,27.40
2018-07-27T23:30:11.449Z,27.30
2018-07-27T23:32:40.351Z,27.30
2018-07-27T23:35:09.223Z,27.20
2018-07-27T23:37:38.142Z,27.10
2018-07-27T23:40:07.842Z,27.00
2018-07-27T23:42:36.724Z,27.00
2018-07-27T23:45:06.485Z,26.90
2018-07-27T23:47:35.310Z,26.90
2018-07-27T23:50:04.198Z,26.80
2018-07-27T23:52:33.769Z,26.80
2018-07-27T23:55:02.633Z,26.70
2018-07-27T23:57:31.479Z,26.70
